Archival Weather

Porter County Rgnl

Valparaiso, Indiana (KVPZ)

Report from: Monday, December 11, 2023 11:56 AM CST
Current time: Wednesday, April 24, 2024 2:18 PM CDT

Current weather – Weather history – Daily summaries
Weather forecast

Temperature-0.6°C (30.9°F)
Wind chill-5.4°C (22.2°F)
Dew point-6.7°C (19.9°F)
Winds 9 kts (4.6 m/s, 10.4 mph) South-Southwest (200°)
Visibility10 mi. (16.1 km)
Clouds Ceiling: Broken clouds 2,200 ft. (671 m)
Altimeter30.18 in.Hg (1022 mB)
Relative humidity63 %
Density altitude-2,171 ft. (-662 m)
Sea-level pressure102.3 kPa (1023 mB, 30.20 in.Hg)
Max temp last 6 hours-0.6°C (30.9°F)
Min temp last 6 hours-2.2°C (28.0°F)
Remarks Fully automated report
Automated weather observing station with precipitation discriminator
Pressure falling more quickly
Flight conditions Marginal Visual Meteorological Conditions
Raw dataKVPZ 111756Z AUTO 20009KT 10SM BKN022 M01/M07 A3018 RMK AO2 SLP227 T10061067 11006 21022 58006
An error has occurred. This application may no longer respond until reloaded. Reload 🗙